Time;durP1;ratioP1;P1;durP2;ratioP2;P2;SDS_P1;SDS_P2;PMS_P1;PMS_P2;Temp;Humidity;BMP_temperature;BMP_pressure;BME280_temperature;BME280_humidity;BME280_pressure;Samples;Min_cycle;Max_cycle;Signal;HPM_P1;HPM_P2
2023/09/08 00:00:45;;;;;;;7.30;6.70;;;;;;;;;;5133190;27;20550;-59
2023/09/08 00:03:12;;;;;;;8.10;7.40;;;;;;;;;;5137282;27;20466;-59
2023/09/08 00:05:40;;;;;;;7.80;7.10;;;;;;;;;;5137077;27;20437;-59
2023/09/08 00:08:08;;;;;;;8.53;7.70;;;;;;;;;;5136806;27;20520;-59
2023/09/08 00:10:35;;;;;;;8.57;6.80;;;;;;;;;;5136333;27;20429;-59
2023/09/08 00:13:03;;;;;;;7.67;6.97;;;;;;;;;;5136480;27;20918;-59
2023/09/08 00:15:30;;;;;;;9.30;7.10;;;;;;;;;;5136891;27;20771;-59
2023/09/08 00:17:57;;;;;;;7.73;6.93;;;;;;;;;;5136670;27;20563;-59
2023/09/08 00:20:24;;;;;;;9.13;8.23;;;;;;;;;;5136579;27;20567;-59
2023/09/08 00:22:52;;;;;;;9.50;7.60;;;;;;;;;;5136265;27;20520;-59
2023/09/08 00:25:20;;;;;;;8.00;7.20;;;;;;;;;;5136536;27;20967;-59
2023/09/08 00:27:47;;;;;;;8.60;7.50;;;;;;;;;;5136533;27;20448;-59
2023/09/08 00:30:15;;;;;;;8.77;7.87;;;;;;;;;;5136596;27;20452;-59
2023/09/08 00:32:42;;;;;;;11.00;7.97;;;;;;;;;;5136487;27;20782;-59
2023/09/08 00:35:12;;;;;;;10.03;7.90;;;;;;;;;;5136044;27;20441;-59
2023/09/08 00:37:39;;;;;;;12.10;7.17;;;;;;;;;;5136118;27;20461;-59
2023/09/08 00:40:08;;;;;;;8.30;7.03;;;;;;;;;;5136010;27;20534;-59
2023/09/08 00:42:36;;;;;;;10.57;7.80;;;;;;;;;;5136086;27;20830;-59
2023/09/08 00:45:04;;;;;;;8.33;7.53;;;;;;;;;;5135906;27;20529;-59
2023/09/08 00:47:31;;;;;;;10.83;7.80;;;;;;;;;;5135987;27;20455;-59
2023/09/08 00:49:59;;;;;;;10.57;7.90;;;;;;;;;;5135799;27;20440;-59
2023/09/08 00:52:31;;;;;;;8.27;7.47;;;;;;;;;;5135625;27;20851;-59
2023/09/08 00:54:58;;;;;;;11.10;8.53;;;;;;;;;;5135547;27;20472;-59
2023/09/08 00:57:25;;;;;;;11.37;8.10;;;;;;;;;;5135105;27;20936;-59
2023/09/08 00:59:54;;;;;;;10.33;7.90;;;;;;;;;;5135578;27;20531;-59
2023/09/08 01:02:22;;;;;;;9.30;7.87;;;;;;;;;;5135465;27;20788;-59
2023/09/08 01:04:49;;;;;;;10.03;7.87;;;;;;;;;;5135107;27;20936;-59
2023/09/08 01:07:16;;;;;;;10.50;8.27;;;;;;;;;;5135293;27;20448;-59
2023/09/08 01:09:44;;;;;;;8.77;7.80;;;;;;;;;;5135311;27;20434;-59
2023/09/08 01:12:11;;;;;;;9.03;7.70;;;;;;;;;;5134882;27;20443;-59
2023/09/08 01:14:38;;;;;;;10.30;8.00;;;;;;;;;;5135332;27;20857;-59
2023/09/08 01:17:07;;;;;;;9.70;8.70;;;;;;;;;;5135077;27;20443;-59
2023/09/08 01:19:34;;;;;;;10.00;8.93;;;;;;;;;;5135072;27;20579;-59
2023/09/08 01:22:13;;;;;;;11.20;8.00;;;;;;;;;;5134999;27;20441;-59
2023/09/08 01:24:51;;;;;;;9.20;8.33;;;;;;;;;;5135519;27;20437;-59
2023/09/08 01:27:20;;;;;;;12.83;8.40;;;;;;;;;;5134661;27;20511;-59
2023/09/08 01:29:49;;;;;;;13.50;8.93;;;;;;;;;;5134892;27;20777;-59
2023/09/08 01:32:16;;;;;;;9.70;8.77;;;;;;;;;;5134700;27;20470;-59
2023/09/08 01:34:43;;;;;;;10.63;9.60;;;;;;;;;;5134705;27;20448;-59
2023/09/08 01:37:11;;;;;;;10.03;9.13;;;;;;;;;;5134354;27;20436;-59
2023/09/08 01:39:38;;;;;;;10.33;8.20;;;;;;;;;;5134742;27;20476;-59
2023/09/08 01:42:05;;;;;;;12.93;9.40;;;;;;;;;;5134695;27;20437;-59
2023/09/08 01:44:34;;;;;;;9.17;8.47;;;;;;;;;;5134378;27;20439;-59
2023/09/08 01:47:01;;;;;;;11.23;8.67;;;;;;;;;;5134405;27;20444;-59
2023/09/08 01:49:28;;;;;;;9.73;8.43;;;;;;;;;;5134519;27;20789;-59
2023/09/08 01:51:55;;;;;;;11.73;10.27;;;;;;;;;;5134708;27;20431;-59
2023/09/08 01:54:23;;;;;;;9.70;8.70;;;;;;;;;;5134109;27;20486;-59
2023/09/08 01:56:51;;;;;;;9.93;9.03;;;;;;;;;;5134179;27;20444;-59
2023/09/08 01:59:18;;;;;;;10.63;9.63;;;;;;;;;;5133994;27;20503;-59
2023/09/08 02:01:46;;;;;;;11.50;9.53;;;;;;;;;;5134081;27;20441;-59
2023/09/08 02:04:13;;;;;;;11.70;9.47;;;;;;;;;;5134085;27;20436;-59
2023/09/08 02:06:41;;;;;;;11.03;9.40;;;;;;;;;;5134352;27;20467;-59
2023/09/08 02:09:09;;;;;;;10.70;9.70;;;;;;;;;;5133983;27;20522;-59
2023/09/08 02:11:36;;;;;;;12.30;8.73;;;;;;;;;;5133857;27;20439;-59
2023/09/08 02:14:04;;;;;;;11.33;10.20;;;;;;;;;;5133906;27;20767;-59
2023/09/08 02:16:32;;;;;;;11.67;10.20;;;;;;;;;;5134261;27;20446;-59
2023/09/08 02:19:00;;;;;;;11.77;9.90;;;;;;;;;;5134368;27;20479;-59
2023/09/08 02:21:27;;;;;;;11.40;8.97;;;;;;;;;;5133953;27;20526;-59
2023/09/08 02:23:54;;;;;;;12.87;9.70;;;;;;;;;;5133547;27;20448;-59
2023/09/08 02:26:22;;;;;;;10.47;9.37;;;;;;;;;;5134349;27;20442;-59
2023/09/08 02:28:49;;;;;;;11.83;10.20;;;;;;;;;;5133879;27;20444;-59
2023/09/08 02:31:16;;;;;;;11.70;10.50;;;;;;;;;;5134408;27;20522;-59
2023/09/08 02:33:43;;;;;;;11.00;9.90;;;;;;;;;;5133731;27;20436;-59
2023/09/08 02:36:12;;;;;;;10.83;9.70;;;;;;;;;;5133763;27;20526;-59
2023/09/08 02:38:39;;;;;;;13.07;10.00;;;;;;;;;;5133736;27;20468;-59
2023/09/08 02:41:06;;;;;;;11.70;10.47;;;;;;;;;;5134488;27;20430;-59
2023/09/08 02:43:33;;;;;;;12.20;9.43;;;;;;;;;;5133780;27;20442;-59
2023/09/08 02:46:00;;;;;;;12.47;9.97;;;;;;;;;;5134163;27;20785;-59
2023/09/08 02:48:28;;;;;;;10.50;9.60;;;;;;;;;;5134039;27;20443;-59
2023/09/08 02:50:55;;;;;;;14.43;12.30;;;;;;;;;;5133990;27;20527;-59
2023/09/08 02:53:28;;;;;;;11.80;10.27;;;;;;;;;;5133482;27;20445;-59
2023/09/08 02:55:55;;;;;;;12.00;10.70;;;;;;;;;;5133397;27;20544;-59
2023/09/08 02:58:23;;;;;;;14.90;10.97;;;;;;;;;;5133517;28;20791;-59
2023/09/08 03:00:51;;;;;;;11.80;10.60;;;;;;;;;;5133531;28;20432;-59
2023/09/08 03:03:19;;;;;;;11.90;10.70;;;;;;;;;;5133467;28;20521;-59
2023/09/08 03:05:46;;;;;;;12.00;10.70;;;;;;;;;;5134091;28;20527;-59
2023/09/08 03:08:13;;;;;;;11.67;9.97;;;;;;;;;;5133796;28;20781;-59
2023/09/08 03:10:41;;;;;;;11.80;10.60;;;;;;;;;;5133684;28;20532;-59
2023/09/08 03:13:09;;;;;;;12.93;11.70;;;;;;;;;;5133543;28;20864;-59
2023/09/08 03:15:36;;;;;;;10.80;9.80;;;;;;;;;;5133019;28;20460;-59
2023/09/08 03:18:03;;;;;;;10.83;9.83;;;;;;;;;;5133690;28;20522;-59
2023/09/08 03:20:31;;;;;;;11.93;10.70;;;;;;;;;;5133320;28;20434;-59
2023/09/08 03:22:58;;;;;;;11.67;10.50;;;;;;;;;;5132980;28;20494;-59
2023/09/08 03:25:26;;;;;;;11.47;10.37;;;;;;;;;;5132984;28;20891;-59
2023/09/08 03:27:54;;;;;;;11.23;9.93;;;;;;;;;;5133238;28;20520;-59
2023/09/08 03:30:21;;;;;;;11.70;10.17;;;;;;;;;;5133402;28;20782;-59
2023/09/08 03:32:49;;;;;;;12.97;11.60;;;;;;;;;;5133194;28;20518;-58
2023/09/08 03:35:16;;;;;;;11.30;10.17;;;;;;;;;;5133191;27;20520;-59
2023/09/08 03:37:43;;;;;;;11.83;10.73;;;;;;;;;;5136644;27;20434;-59
2023/09/08 03:40:11;;;;;;;12.17;10.90;;;;;;;;;;5136815;27;20560;-59
2023/09/08 03:42:38;;;;;;;12.83;10.60;;;;;;;;;;5136958;27;20443;-59
2023/09/08 03:45:07;;;;;;;11.93;10.77;;;;;;;;;;5137057;27;20443;-59
2023/09/08 03:47:34;;;;;;;11.60;10.33;;;;;;;;;;5137197;27;20702;-59
2023/09/08 03:50:01;;;;;;;13.70;10.67;;;;;;;;;;5136528;27;20456;-59
2023/09/08 03:52:28;;;;;;;13.50;10.93;;;;;;;;;;5137037;27;20748;-59
2023/09/08 03:54:56;;;;;;;13.97;11.40;;;;;;;;;;5137263;27;20479;-59
2023/09/08 03:57:23;;;;;;;14.23;10.70;;;;;;;;;;5136628;27;20439;-59
2023/09/08 03:59:50;;;;;;;12.30;10.90;;;;;;;;;;5135524;27;20835;-59
2023/09/08 04:02:19;;;;;;;11.73;10.60;;;;;;;;;;5136164;27;20450;-58
2023/09/08 04:04:46;;;;;;;12.30;11.10;;;;;;;;;;5136414;27;20504;-59
2023/09/08 04:07:13;;;;;;;11.87;10.77;;;;;;;;;;5136749;27;20908;-59
2023/09/08 04:09:40;;;;;;;12.47;11.17;;;;;;;;;;5136331;27;20752;-59
2023/09/08 04:12:09;;;;;;;17.03;11.90;;;;;;;;;;5136490;27;20518;-59
2023/09/08 04:14:36;;;;;;;12.83;11.63;;;;;;;;;;5135984;27;20528;-59
2023/09/08 04:17:03;;;;;;;16.00;11.63;;;;;;;;;;5136454;27;20512;-59
2023/09/08 04:19:32;;;;;;;12.87;11.60;;;;;;;;;;5136178;27;20570;-59
2023/09/08 04:21:59;;;;;;;12.60;11.30;;;;;;;;;;5136008;27;20442;-59
2023/09/08 04:24:26;;;;;;;12.27;11.07;;;;;;;;;;5136241;27;20444;-59
2023/09/08 04:26:53;;;;;;;12.80;11.60;;;;;;;;;;5136318;27;20436;-59
2023/09/08 04:29:21;;;;;;;12.63;11.10;;;;;;;;;;5136145;27;20451;-60
2023/09/08 04:31:48;;;;;;;12.57;11.27;;;;;;;;;;5136077;27;20771;-59
2023/09/08 04:34:15;;;;;;;11.80;10.70;;;;;;;;;;5136177;27;20834;-59
2023/09/08 04:36:43;;;;;;;45.83;32.73;;;;;;;;;;5135899;27;20444;-59
2023/09/08 04:39:11;;;;;;;14.90;13.30;;;;;;;;;;5135867;27;20578;-59
2023/09/08 04:41:38;;;;;;;11.83;10.53;;;;;;;;;;5135641;27;20440;-59
2023/09/08 04:44:06;;;;;;;13.77;11.07;;;;;;;;;;5135962;27;20785;-59
2023/09/08 04:46:33;;;;;;;12.53;11.40;;;;;;;;;;5135347;27;20826;-59
2023/09/08 04:49:00;;;;;;;11.63;10.40;;;;;;;;;;5135121;27;20521;-59
2023/09/08 04:51:27;;;;;;;14.43;11.80;;;;;;;;;;5135236;27;20516;-59
2023/09/08 04:53:56;;;;;;;12.77;11.70;;;;;;;;;;5134992;27;20659;-59
2023/09/08 04:56:23;;;;;;;13.83;11.93;;;;;;;;;;5135419;27;20527;-59
2023/09/08 04:58:51;;;;;;;12.27;11.17;;;;;;;;;;5135438;27;20443;-59
2023/09/08 05:01:18;;;;;;;13.13;11.93;;;;;;;;;;5135292;27;20451;-59
2023/09/08 05:03:45;;;;;;;15.00;11.30;;;;;;;;;;5135291;27;20436;-59
2023/09/08 05:06:13;;;;;;;14.10;12.57;;;;;;;;;;5135009;27;20438;-59
2023/09/08 05:08:40;;;;;;;14.40;13.00;;;;;;;;;;5135196;27;20439;-58
2023/09/08 05:11:09;;;;;;;13.90;11.93;;;;;;;;;;5134965;27;20531;-59
2023/09/08 05:13:36;;;;;;;17.57;12.07;;;;;;;;;;5135220;27;20535;-59
2023/09/08 05:16:11;;;;;;;14.40;12.97;;;;;;;;;;5135152;27;20443;-59
2023/09/08 05:18:38;;;;;;;14.60;13.10;;;;;;;;;;5134772;27;20432;-59
2023/09/08 05:21:05;;;;;;;16.30;13.50;;;;;;;;;;5135008;27;20573;-59
2023/09/08 05:23:32;;;;;;;15.57;13.20;;;;;;;;;;5134692;27;20930;-59
2023/09/08 05:26:00;;;;;;;13.57;12.17;;;;;;;;;;5135180;27;20439;-59
2023/09/08 05:28:28;;;;;;;15.20;13.10;;;;;;;;;;5134803;27;20442;-59
2023/09/08 05:30:55;;;;;;;14.40;11.80;;;;;;;;;;5134747;27;20524;-59
2023/09/08 05:33:23;;;;;;;16.13;12.47;;;;;;;;;;5134518;27;20523;-59
2023/09/08 05:35:50;;;;;;;14.47;12.20;;;;;;;;;;5135116;27;20439;-59
2023/09/08 05:38:17;;;;;;;13.57;12.27;;;;;;;;;;5135297;27;20434;-59
2023/09/08 05:40:44;;;;;;;14.90;12.90;;;;;;;;;;5134958;27;20566;-59
2023/09/08 05:43:11;;;;;;;14.00;12.70;;;;;;;;;;5134977;27;20440;-59
2023/09/08 05:45:40;;;;;;;14.10;12.70;;;;;;;;;;5134762;27;21037;-59
2023/09/08 05:48:07;;;;;;;12.60;11.37;;;;;;;;;;5134845;27;20513;-59
2023/09/08 05:50:34;;;;;;;14.10;12.60;;;;;;;;;;5134870;27;20442;-59
2023/09/08 05:53:02;;;;;;;12.60;11.30;;;;;;;;;;5134947;27;20533;-59
2023/09/08 05:55:29;;;;;;;12.97;11.67;;;;;;;;;;5134278;27;20545;-59
2023/09/08 05:57:56;;;;;;;12.57;11.27;;;;;;;;;;5134666;27;20790;-59
2023/09/08 06:00:23;;;;;;;14.17;11.97;;;;;;;;;;5133779;27;20814;-59
2023/09/08 06:02:52;;;;;;;13.13;11.07;;;;;;;;;;5134215;27;20782;-60
2023/09/08 06:05:19;;;;;;;13.40;12.10;;;;;;;;;;5134545;27;20445;-59
2023/09/08 06:07:46;;;;;;;19.77;12.57;;;;;;;;;;5134258;27;20447;-59
2023/09/08 06:10:13;;;;;;;15.77;12.43;;;;;;;;;;5134587;27;20539;-59
2023/09/08 06:12:40;;;;;;;15.23;11.80;;;;;;;;;;5133931;27;20534;-59
2023/09/08 06:15:08;;;;;;;13.00;10.73;;;;;;;;;;5133990;27;20443;-59
2023/09/08 06:17:35;;;;;;;22.30;12.00;;;;;;;;;;5133894;27;20436;-59
2023/09/08 06:20:04;;;;;;;19.43;12.10;;;;;;;;;;5134176;27;20555;-59
2023/09/08 06:22:31;;;;;;;13.30;11.67;;;;;;;;;;5133941;27;20532;-59
2023/09/08 06:24:58;;;;;;;12.57;11.47;;;;;;;;;;5133602;27;20534;-59
2023/09/08 06:27:26;;;;;;;12.83;10.97;;;;;;;;;;5133905;27;20548;-59
2023/09/08 06:29:53;;;;;;;13.60;11.40;;;;;;;;;;5133548;27;20850;-59
2023/09/08 06:32:20;;;;;;;14.37;12.97;;;;;;;;;;5133690;27;20493;-59
2023/09/08 06:34:47;;;;;;;13.50;12.03;;;;;;;;;;5133253;27;20439;-59
2023/09/08 06:37:16;;;;;;;13.93;11.73;;;;;;;;;;5133696;27;20517;-59
2023/09/08 06:39:43;;;;;;;15.13;12.03;;;;;;;;;;5133333;27;20558;-59
2023/09/08 06:42:10;;;;;;;12.77;11.57;;;;;;;;;;5133134;27;20857;-59
2023/09/08 06:44:38;;;;;;;12.97;10.57;;;;;;;;;;5133595;27;20439;-59
2023/09/08 06:47:06;;;;;;;12.50;11.30;;;;;;;;;;5133255;27;20450;-59
2023/09/08 06:49:34;;;;;;;13.47;10.90;;;;;;;;;;5133513;27;20531;-59
2023/09/08 06:52:01;;;;;;;13.30;12.00;;;;;;;;;;5133286;27;20534;-59
2023/09/08 06:54:29;;;;;;;12.07;10.87;;;;;;;;;;5133146;27;20483;-59
2023/09/08 06:56:56;;;;;;;12.10;10.87;;;;;;;;;;5133403;27;20479;-59
2023/09/08 06:59:24;;;;;;;13.83;10.80;;;;;;;;;;5133478;28;20436;-59
2023/09/08 07:01:51;;;;;;;12.13;9.50;;;;;;;;;;5133523;28;20851;-59
2023/09/08 07:04:18;;;;;;;12.47;11.27;;;;;;;;;;5133446;28;20517;-59
2023/09/08 07:06:46;;;;;;;13.17;10.23;;;;;;;;;;5133507;28;20515;-59
2023/09/08 07:09:13;;;;;;;14.17;10.40;;;;;;;;;;5133418;28;20437;-59
2023/09/08 07:11:42;;;;;;;35.87;11.63;;;;;;;;;;5136773;27;20433;-59
2023/09/08 07:14:09;;;;;;;11.47;10.20;;;;;;;;;;5138005;27;20526;-59
2023/09/08 07:16:36;;;;;;;14.00;11.93;;;;;;;;;;5137781;27;20435;-60
2023/09/08 07:19:03;;;;;;;17.80;12.17;;;;;;;;;;5137527;27;20498;-59
2023/09/08 07:21:30;;;;;;;16.23;9.90;;;;;;;;;;5137636;27;20466;-59
2023/09/08 07:23:58;;;;;;;12.00;10.23;;;;;;;;;;5137868;27;20540;-60
2023/09/08 07:26:25;;;;;;;10.30;9.30;;;;;;;;;;5137739;27;20834;-59
2023/09/08 07:28:53;;;;;;;15.50;9.90;;;;;;;;;;5137705;27;20447;-59
2023/09/08 07:31:21;;;;;;;14.03;8.60;;;;;;;;;;5137629;27;20449;-60
2023/09/08 07:33:48;;;;;;;12.20;10.90;;;;;;;;;;5137382;27;20521;-59
2023/09/08 07:36:15;;;;;;;11.90;9.47;;;;;;;;;;5137317;27;20521;-59
2023/09/08 07:38:42;;;;;;;9.03;8.23;;;;;;;;;;5137364;27;20848;-60
2023/09/08 07:41:10;;;;;;;14.10;9.33;;;;;;;;;;5137010;27;20504;-60
2023/09/08 07:43:40;;;;;;;10.43;8.10;;;;;;;;;;5136957;27;20528;-59
2023/09/08 07:46:08;;;;;;;13.33;7.93;;;;;;;;;;5137331;27;20426;-60
2023/09/08 07:48:36;;;;;;;17.13;10.33;;;;;;;;;;5136709;27;20441;-60
2023/09/08 07:51:03;;;;;;;10.07;8.97;;;;;;;;;;5136976;27;20444;-59
2023/09/08 07:53:30;;;;;;;16.53;9.50;;;;;;;;;;5136878;27;20476;-59
2023/09/08 07:55:57;;;;;;;14.87;12.73;;;;;;;;;;5137303;27;20429;-59
2023/09/08 07:58:25;;;;;;;9.63;8.63;;;;;;;;;;5136640;27;20760;-60
2023/09/08 08:00:52;;;;;;;9.50;8.60;;;;;;;;;;5136622;27;20787;-59
2023/09/08 08:03:21;;;;;;;12.33;8.90;;;;;;;;;;5136958;27;20433;-60
2023/09/08 08:05:48;;;;;;;7.40;6.77;;;;;;;;;;5136936;27;20528;-59
2023/09/08 08:08:15;;;;;;;11.90;7.73;;;;;;;;;;5136530;27;20549;-60
2023/09/08 08:10:43;;;;;;;12.00;7.57;;;;;;;;;;5136843;27;20473;-60
2023/09/08 08:13:10;;;;;;;7.50;6.80;;;;;;;;;;5136705;27;20488;-60
2023/09/08 08:15:37;;;;;;;14.33;10.37;;;;;;;;;;5136962;27;20456;-60
2023/09/08 08:18:05;;;;;;;9.53;8.40;;;;;;;;;;5136773;27;20433;-60
2023/09/08 08:20:35;;;;;;;8.70;7.90;;;;;;;;;;5136692;27;20467;-60
2023/09/08 08:23:02;;;;;;;10.07;9.07;;;;;;;;;;5135677;27;20434;-60
2023/09/08 08:25:30;;;;;;;12.90;10.17;;;;;;;;;;5136451;27;20903;-60
2023/09/08 08:27:58;;;;;;;8.23;7.47;;;;;;;;;;5136879;27;20835;-60
2023/09/08 08:30:25;;;;;;;11.20;7.70;;;;;;;;;;5136300;27;20447;-60
2023/09/08 08:32:53;;;;;;;13.97;10.90;;;;;;;;;;5135416;27;20957;-60
2023/09/08 08:35:20;;;;;;;9.43;7.77;;;;;;;;;;5136369;27;20435;-60
2023/09/08 08:37:49;;;;;;;12.53;7.77;;;;;;;;;;5136532;27;20455;-60
2023/09/08 08:40:16;;;;;;;12.20;7.20;;;;;;;;;;5136311;27;20472;-60
2023/09/08 08:42:44;;;;;;;15.07;8.23;;;;;;;;;;5136191;27;20474;-60
2023/09/08 08:45:11;;;;;;;13.10;7.67;;;;;;;;;;5135972;27;20441;-60
2023/09/08 08:47:39;;;;;;;9.13;7.20;;;;;;;;;;5135980;27;20479;-60
2023/09/08 08:50:06;;;;;;;10.37;6.63;;;;;;;;;;5135927;27;20891;-60
2023/09/08 08:52:34;;;;;;;10.40;6.80;;;;;;;;;;5136905;27;20508;-60
2023/09/08 08:55:02;;;;;;;10.47;5.93;;;;;;;;;;5136512;27;20479;-60
2023/09/08 08:57:30;;;;;;;7.60;6.90;;;;;;;;;;5135820;27;20456;-60
2023/09/08 08:59:58;;;;;;;13.27;8.47;;;;;;;;;;5135347;27;20951;-60
2023/09/08 09:02:27;;;;;;;7.23;5.70;;;;;;;;;;5135852;27;20508;-60
2023/09/08 09:04:54;;;;;;;7.60;6.43;;;;;;;;;;5135780;27;20448;-60
2023/09/08 09:07:22;;;;;;;7.07;6.37;;;;;;;;;;5135394;27;20932;-60
2023/09/08 09:09:49;;;;;;;7.17;6.47;;;;;;;;;;5135360;27;20432;-60
2023/09/08 09:12:17;;;;;;;10.70;6.43;;;;;;;;;;5135638;27;20440;-60
2023/09/08 09:14:47;;;;;;;6.73;6.13;;;;;;;;;;5135096;27;20474;-60
2023/09/08 09:17:15;;;;;;;7.23;6.40;;;;;;;;;;5135038;27;20428;-60
2023/09/08 09:19:42;;;;;;;8.50;6.93;;;;;;;;;;5135030;27;20562;-60
2023/09/08 09:22:10;;;;;;;7.83;5.57;;;;;;;;;;5134790;27;20465;-60
2023/09/08 09:24:40;;;;;;;6.10;5.53;;;;;;;;;;5135268;27;20447;-60
2023/09/08 09:27:08;;;;;;;6.00;5.50;;;;;;;;;;5135614;27;20512;-60
2023/09/08 09:29:45;;;;;;;7.90;7.13;;;;;;;;;;5134740;27;20478;-60
2023/09/08 09:32:12;;;;;;;8.60;5.70;;;;;;;;;;5134706;27;20417;-60
2023/09/08 09:34:48;;;;;;;12.83;6.87;;;;;;;;;;5134045;27;20477;-60
2023/09/08 09:37:16;;;;;;;8.53;6.00;;;;;;;;;;5135287;27;20520;-60
2023/09/08 09:39:43;;;;;;;9.50;5.43;;;;;;;;;;5134535;27;20462;-60
2023/09/08 09:42:10;;;;;;;7.73;5.43;;;;;;;;;;5134873;27;20556;-60
2023/09/08 09:44:39;;;;;;;5.70;5.20;;;;;;;;;;5134586;27;20914;-60
2023/09/08 09:47:06;;;;;;;5.80;5.30;;;;;;;;;;5134778;27;20489;-60
2023/09/08 09:49:34;;;;;;;6.13;5.30;;;;;;;;;;5134474;27;20855;-60
2023/09/08 09:52:01;;;;;;;6.50;5.70;;;;;;;;;;5134904;27;20542;-60
2023/09/08 09:54:31;;;;;;;6.10;5.30;;;;;;;;;;5134634;27;20495;-60
2023/09/08 09:56:58;;;;;;;6.00;5.50;;;;;;;;;;5134632;27;20434;-60
2023/09/08 09:59:25;;;;;;;6.60;6.00;;;;;;;;;;5134671;27;20554;-60
2023/09/08 10:01:54;;;;;;;8.47;6.10;;;;;;;;;;5134465;27;20471;-60
2023/09/08 10:04:22;;;;;;;5.63;5.03;;;;;;;;;;5134401;27;20783;-60
2023/09/08 10:06:51;;;;;;;10.27;5.27;;;;;;;;;;5134233;27;20437;-60
2023/09/08 10:09:19;;;;;;;5.47;4.97;;;;;;;;;;5134193;27;20448;-60
2023/09/08 10:11:48;;;;;;;7.57;5.50;;;;;;;;;;5134129;27;20446;-60
2023/09/08 10:14:16;;;;;;;6.87;5.03;;;;;;;;;;5134033;27;20526;-60
2023/09/08 10:16:45;;;;;;;6.00;5.50;;;;;;;;;;5133951;27;20445;-60
2023/09/08 10:19:13;;;;;;;7.20;5.87;;;;;;;;;;5133827;27;20531;-60
2023/09/08 10:21:42;;;;;;;6.47;5.47;;;;;;;;;;5134752;27;20578;-60
2023/09/08 10:24:13;;;;;;;7.93;5.40;;;;;;;;;;5133929;27;20446;-60
2023/09/08 10:26:44;;;;;;;6.00;5.40;;;;;;;;;;5134104;27;20527;-60
2023/09/08 10:29:11;;;;;;;14.17;6.00;;;;;;;;;;5133794;27;20443;-60
2023/09/08 10:31:39;;;;;;;5.43;5.03;;;;;;;;;;5133730;27;20443;-60
2023/09/08 10:34:06;;;;;;;5.90;5.00;;;;;;;;;;5133558;27;20433;-60
2023/09/08 10:36:35;;;;;;;9.60;7.00;;;;;;;;;;5133628;27;20531;-60
2023/09/08 10:39:17;;;;;;;6.17;5.67;;;;;;;;;;5134246;27;20436;-60
2023/09/08 10:41:45;;;;;;;6.20;5.60;;;;;;;;;;5132881;27;20512;-60
2023/09/08 10:44:16;;;;;;;5.73;5.20;;;;;;;;;;5133722;27;21016;-60
2023/09/08 10:46:44;;;;;;;6.63;5.20;;;;;;;;;;5133821;27;20425;-60
2023/09/08 10:49:12;;;;;;;5.80;5.33;;;;;;;;;;5133597;27;20439;-60
2023/09/08 10:51:41;;;;;;;7.27;5.53;;;;;;;;;;5133613;27;20553;-60
2023/09/08 10:54:08;;;;;;;5.47;4.97;;;;;;;;;;5133491;27;20578;-60
2023/09/08 10:56:50;;;;;;;6.63;6.07;;;;;;;;;;5133220;27;20461;-60
2023/09/08 10:59:17;;;;;;;10.97;6.13;;;;;;;;;;5133820;27;20428;-60
2023/09/08 11:01:44;;;;;;;8.40;6.40;;;;;;;;;;5133211;28;20556;-60
2023/09/08 11:04:13;;;;;;;6.03;5.43;;;;;;;;;;5133748;28;20758;-60
2023/09/08 11:06:42;;;;;;;6.23;5.00;;;;;;;;;;5133489;28;20441;-60
2023/09/08 11:09:10;;;;;;;6.73;6.00;;;;;;;;;;5133193;28;20539;-60
2023/09/08 11:11:37;;;;;;;6.80;5.60;;;;;;;;;;5133008;28;20445;-60
2023/09/08 11:14:04;;;;;;;8.70;5.67;;;;;;;;;;5133298;28;20451;-60
2023/09/08 11:16:33;;;;;;;12.27;5.80;;;;;;;;;;5133351;28;20539;-60
2023/09/08 11:19:01;;;;;;;5.60;5.10;;;;;;;;;;5133481;28;20459;-60
2023/09/08 11:21:34;;;;;;;6.13;5.43;;;;;;;;;;5133040;28;20779;-60
2023/09/08 11:24:04;;;;;;;8.40;5.20;;;;;;;;;;5133554;28;20453;-60
2023/09/08 11:26:34;;;;;;;6.10;5.60;;;;;;;;;;5132966;28;20434;-60
2023/09/08 11:29:01;;;;;;;6.73;5.27;;;;;;;;;;5134177;28;20445;-60
2023/09/08 11:31:28;;;;;;;5.43;4.90;;;;;;;;;;5133761;28;20730;-60
2023/09/08 11:33:56;;;;;;;5.80;5.20;;;;;;;;;;5133578;28;20422;-62
2023/09/08 11:36:23;;;;;;;9.17;5.63;;;;;;;;;;5132925;28;20966;-62
2023/09/08 11:38:51;;;;;;;10.60;5.30;;;;;;;;;;5133558;28;20419;-61
2023/09/08 11:41:23;;;;;;;8.90;5.50;;;;;;;;;;5133104;28;20491;-61
2023/09/08 11:43:51;;;;;;;5.50;5.10;;;;;;;;;;5133011;28;20898;-61
2023/09/08 11:46:19;;;;;;;8.30;5.37;;;;;;;;;;5131627;28;20404;-61
2023/09/08 11:48:46;;;;;;;7.50;5.10;;;;;;;;;;5132678;28;20462;-61
2023/09/08 11:51:14;;;;;;;6.80;6.10;;;;;;;;;;5133108;28;20444;-61
2023/09/08 11:53:41;;;;;;;5.90;5.47;;;;;;;;;;5132854;27;20455;-61
2023/09/08 11:56:08;;;;;;;6.70;6.10;;;;;;;;;;5133040;27;20827;-61
2023/09/08 11:58:37;;;;;;;6.40;5.87;;;;;;;;;;5136040;27;20419;-61
2023/09/08 12:01:05;;;;;;;5.90;5.40;;;;;;;;;;5136483;27;20519;-60
2023/09/08 12:03:32;;;;;;;6.17;5.57;;;;;;;;;;5137013;27;20441;-60
2023/09/08 12:06:01;;;;;;;5.47;4.93;;;;;;;;;;5136857;27;20419;-60
2023/09/08 12:08:29;;;;;;;8.80;6.30;;;;;;;;;;5136882;27;20445;-60
2023/09/08 12:10:56;;;;;;;9.83;6.40;;;;;;;;;;5136693;27;20440;-60
2023/09/08 12:13:24;;;;;;;5.90;5.40;;;;;;;;;;5136376;27;20919;-60
2023/09/08 12:15:52;;;;;;;8.53;6.13;;;;;;;;;;5136202;27;20447;-61
2023/09/08 12:18:19;;;;;;;6.67;6.07;;;;;;;;;;5136512;27;20465;-60
2023/09/08 12:20:47;;;;;;;10.20;5.60;;;;;;;;;;5135945;27;20506;-61
2023/09/08 12:23:18;;;;;;;7.10;6.03;;;;;;;;;;5136349;27;20523;-60
2023/09/08 12:25:48;;;;;;;7.40;5.50;;;;;;;;;;5136412;27;20918;-60
2023/09/08 12:28:17;;;;;;;6.50;5.77;;;;;;;;;;5136606;27;20586;-59
2023/09/08 12:30:44;;;;;;;6.13;5.57;;;;;;;;;;5136454;27;20810;-60
2023/09/08 12:33:14;;;;;;;5.43;4.90;;;;;;;;;;5136286;27;20430;-60
2023/09/08 12:35:44;;;;;;;6.97;5.70;;;;;;;;;;5136171;27;20423;-60
2023/09/08 12:38:11;;;;;;;6.67;5.97;;;;;;;;;;5136528;27;20419;-60
2023/09/08 12:40:39;;;;;;;7.10;6.40;;;;;;;;;;5135837;27;20438;-61
2023/09/08 12:43:07;;;;;;;6.47;5.87;;;;;;;;;;5136080;27;20560;-60
2023/09/08 12:45:34;;;;;;;7.80;5.47;;;;;;;;;;5136216;27;20443;-60
2023/09/08 12:48:02;;;;;;;6.40;5.80;;;;;;;;;;5135681;27;20441;-60
2023/09/08 12:50:31;;;;;;;5.57;5.17;;;;;;;;;;5135962;27;20466;-60
2023/09/08 12:52:58;;;;;;;7.63;5.80;;;;;;;;;;5135866;27;20421;-60
2023/09/08 12:55:25;;;;;;;5.93;5.10;;;;;;;;;;5136349;27;20445;-60
2023/09/08 12:57:54;;;;;;;6.37;5.77;;;;;;;;;;5135718;27;20423;-59
2023/09/08 13:00:22;;;;;;;7.50;6.90;;;;;;;;;;5135527;27;20419;-59
2023/09/08 13:02:50;;;;;;;6.50;5.90;;;;;;;;;;5135554;27;20787;-59
2023/09/08 13:05:17;;;;;;;5.73;5.33;;;;;;;;;;5136091;27;20429;-59
2023/09/08 13:07:46;;;;;;;6.50;5.13;;;;;;;;;;5135242;27;20406;-59
2023/09/08 13:10:13;;;;;;;7.07;6.37;;;;;;;;;;5135412;27;20439;-59
2023/09/08 13:12:40;;;;;;;7.00;6.00;;;;;;;;;;5135040;27;20448;-59
2023/09/08 13:15:08;;;;;;;5.50;5.00;;;;;;;;;;5135587;27;20797;-59
2023/09/08 13:17:35;;;;;;;6.90;5.23;;;;;;;;;;5135296;27;20412;-59
2023/09/08 13:20:03;;;;;;;5.87;5.33;;;;;;;;;;5135964;27;20452;-59
2023/09/08 13:22:30;;;;;;;6.57;5.60;;;;;;;;;;5135238;27;20971;-59
2023/09/08 13:24:59;;;;;;;5.70;5.20;;;;;;;;;;5135435;27;20419;-59
2023/09/08 13:27:26;;;;;;;6.30;5.70;;;;;;;;;;5134798;27;20865;-63
2023/09/08 13:29:55;;;;;;;5.97;5.47;;;;;;;;;;5135362;27;20516;-59
2023/09/08 13:32:24;;;;;;;6.10;5.50;;;;;;;;;;5135504;27;20446;-58
2023/09/08 13:34:52;;;;;;;9.87;5.57;;;;;;;;;;5135160;27;20463;-58
2023/09/08 13:37:19;;;;;;;6.80;6.20;;;;;;;;;;5134950;27;20519;-59
2023/09/08 13:39:46;;;;;;;5.70;5.10;;;;;;;;;;5134900;27;20444;-58
2023/09/08 13:42:15;;;;;;;9.13;6.20;;;;;;;;;;5133940;27;20479;-59
2023/09/08 13:44:42;;;;;;;5.90;5.40;;;;;;;;;;5134964;27;20445;-59
2023/09/08 13:47:09;;;;;;;5.90;5.40;;;;;;;;;;5134574;27;20436;-59
2023/09/08 13:49:37;;;;;;;6.23;5.67;;;;;;;;;;5134569;27;20444;-59
2023/09/08 13:52:04;;;;;;;5.07;4.63;;;;;;;;;;5134404;27;20452;-59
2023/09/08 13:54:31;;;;;;;12.20;5.17;;;;;;;;;;5134577;27;20472;-59
2023/09/08 13:57:00;;;;;;;7.17;5.87;;;;;;;;;;5134716;27;20438;-59
2023/09/08 13:59:29;;;;;;;6.47;4.90;;;;;;;;;;5134164;27;20437;-59
2023/09/08 14:01:57;;;;;;;8.27;5.07;;;;;;;;;;5133990;27;20567;-59
2023/09/08 14:04:24;;;;;;;5.23;4.83;;;;;;;;;;5133621;27;20437;-59
2023/09/08 14:06:51;;;;;;;5.70;5.20;;;;;;;;;;5134160;27;20543;-59
2023/09/08 14:09:19;;;;;;;7.17;5.40;;;;;;;;;;5134143;27;20440;-59
2023/09/08 14:11:46;;;;;;;6.50;5.13;;;;;;;;;;5134119;27;20434;-59
2023/09/08 14:14:13;;;;;;;5.23;4.73;;;;;;;;;;5134109;27;20795;-59
2023/09/08 14:16:42;;;;;;;9.40;5.83;;;;;;;;;;5134386;27;20440;-59
2023/09/08 14:19:09;;;;;;;14.10;7.37;;;;;;;;;;5133987;27;20541;-59
2023/09/08 14:21:39;;;;;;;6.33;5.73;;;;;;;;;;5133546;27;20441;-59
2023/09/08 14:24:06;;;;;;;5.27;4.87;;;;;;;;;;5134060;27;20456;-59
2023/09/08 14:26:34;;;;;;;6.00;5.50;;;;;;;;;;5134195;27;20771;-59
2023/09/08 14:29:02;;;;;;;5.90;5.30;;;;;;;;;;5133462;27;20457;-59
2023/09/08 14:31:29;;;;;;;7.93;5.00;;;;;;;;;;5133698;27;20437;-59
2023/09/08 14:33:57;;;;;;;5.03;4.53;;;;;;;;;;5133609;27;20797;-59